createdAt,value
2022-10-03T00:01:15.760Z,5.82
2022-10-03T00:03:55.414Z,6.10
2022-10-03T00:06:35.316Z,6.10
2022-10-03T00:09:19.484Z,5.60
2022-10-03T00:12:00.797Z,5.68
2022-10-03T00:14:41.256Z,5.50
2022-10-03T00:17:18.133Z,5.78
2022-10-03T00:19:54.201Z,4.90
2022-10-03T00:22:33.835Z,5.05
2022-10-03T00:25:24.887Z,5.50
2022-10-03T00:28:09.123Z,4.53
2022-10-03T00:30:54.500Z,4.72
2022-10-03T00:33:31.344Z,5.05
2022-10-03T00:36:09.523Z,4.90
2022-10-03T00:39:04.668Z,5.55
2022-10-03T00:41:57.638Z,4.97
2022-10-03T00:44:50.521Z,4.50
2022-10-03T00:47:46.662Z,5.22
2022-10-03T00:50:44.357Z,5.45
2022-10-03T00:53:30.164Z,4.88
2022-10-03T00:56:15.649Z,5.85
2022-10-03T00:59:03.112Z,5.80
2022-10-03T01:01:38.524Z,6.57
2022-10-03T01:04:23.369Z,6.18
2022-10-03T01:07:03.745Z,6.05
2022-10-03T01:09:47.949Z,5.93
2022-10-03T01:12:35.151Z,6.13
2022-10-03T01:15:23.797Z,6.95
2022-10-03T01:18:15.365Z,7.03
2022-10-03T01:20:54.377Z,6.40
2022-10-03T01:24:13.701Z,6.45
2022-10-03T01:26:56.896Z,6.32
2022-10-03T01:30:04.838Z,6.13
2022-10-03T01:32:41.205Z,6.53
2022-10-03T01:35:26.033Z,6.35
2022-10-03T01:38:01.831Z,6.20
2022-10-03T01:40:34.875Z,7.45
2022-10-03T01:43:11.958Z,6.90
2022-10-03T01:45:52.814Z,6.70
2022-10-03T01:48:28.755Z,7.18
2022-10-03T01:51:03.115Z,8.00
2022-10-03T01:53:42.348Z,7.43
2022-10-03T01:56:20.390Z,8.40
2022-10-03T01:58:58.806Z,8.68
2022-10-03T02:01:37.778Z,7.88
2022-10-03T02:04:16.991Z,7.38
2022-10-03T02:06:55.412Z,8.07
2022-10-03T02:09:35.225Z,7.43
2022-10-03T02:12:09.746Z,7.72
2022-10-03T02:14:48.535Z,8.52
2022-10-03T02:17:30.736Z,8.32
2022-10-03T02:20:14.936Z,8.38
2022-10-03T02:22:47.650Z,7.43
2022-10-03T02:25:26.835Z,8.23
2022-10-03T02:28:37.927Z,8.40
2022-10-03T02:31:37.718Z,6.93
2022-10-03T02:34:34.332Z,8.05
2022-10-03T02:37:28.783Z,8.68
2022-10-03T02:40:33.108Z,8.82
2022-10-03T02:43:33.196Z,8.63
2022-10-03T02:46:23.309Z,8.15
2022-10-03T02:49:36.497Z,7.10
2022-10-03T02:52:39.471Z,6.80
2022-10-03T02:55:44.776Z,7.32
2022-10-03T02:58:50.652Z,7.53
2022-10-03T03:02:01.060Z,6.45
2022-10-03T03:05:02.284Z,6.63
2022-10-03T03:08:00.044Z,7.00
2022-10-03T03:10:53.475Z,8.07
2022-10-03T03:13:55.024Z,7.07
2022-10-03T03:16:48.010Z,7.47
2022-10-03T03:19:47.316Z,7.78
2022-10-03T03:22:33.245Z,7.80
2022-10-03T03:25:43.204Z,7.80
2022-10-03T03:28:27.793Z,7.43
2022-10-03T03:31:06.725Z,7.85
2022-10-03T03:33:46.022Z,8.38
2022-10-03T03:36:24.203Z,7.90
2022-10-03T03:39:04.449Z,7.82
2022-10-03T03:41:47.618Z,7.22
2022-10-03T03:44:45.080Z,8.07
2022-10-03T03:47:36.985Z,8.25
2022-10-03T03:50:28.244Z,6.72
2022-10-03T03:53:15.528Z,7.20
2022-10-03T03:55:56.441Z,6.90
2022-10-03T03:58:34.027Z,6.97
2022-10-03T04:01:31.899Z,6.68
2022-10-03T04:04:13.026Z,7.38
2022-10-03T04:06:54.680Z,9.57
2022-10-03T04:10:00.072Z,9.20
2022-10-03T04:12:38.908Z,10.98
2022-10-03T04:15:25.061Z,10.48
2022-10-03T04:18:40.690Z,9.00
2022-10-03T04:21:33.884Z,7.78
2022-10-03T04:24:44.168Z,7.15
2022-10-03T04:27:39.213Z,6.95
2022-10-03T04:30:14.826Z,7.32
2022-10-03T04:32:59.020Z,6.50
2022-10-03T04:36:08.616Z,6.75
2022-10-03T04:38:45.220Z,7.22
2022-10-03T04:41:23.830Z,6.70
2022-10-03T04:44:01.061Z,7.40
2022-10-03T04:46:36.537Z,7.95
2022-10-03T04:49:15.405Z,8.63
2022-10-03T04:51:55.576Z,8.77
2022-10-03T04:54:34.962Z,8.65
2022-10-03T04:57:09.165Z,10.55
2022-10-03T04:59:49.338Z,10.30
2022-10-03T05:02:37.937Z,11.02
2022-10-03T05:05:27.320Z,9.75
2022-10-03T05:08:05.575Z,9.70
2022-10-03T05:10:50.410Z,9.45
2022-10-03T05:13:30.724Z,8.73
2022-10-03T05:16:09.086Z,8.77
2022-10-03T05:18:45.036Z,8.23
2022-10-03T05:21:22.492Z,7.60
2022-10-03T05:24:04.029Z,9.35
2022-10-03T05:26:46.292Z,10.30
2022-10-03T05:29:25.420Z,11.27
2022-10-03T05:32:13.867Z,10.07
2022-10-03T05:34:58.722Z,9.60
2022-10-03T05:37:47.665Z,10.30
2022-10-03T05:40:21.267Z,10.80
2022-10-03T05:43:14.174Z,10.23
2022-10-03T05:45:50.633Z,10.82
2022-10-03T05:48:34.364Z,10.77
2022-10-03T05:51:43.048Z,10.48
2022-10-03T05:54:43.697Z,10.15
2022-10-03T05:58:02.517Z,8.63
2022-10-03T06:00:46.085Z,8.80
2022-10-03T06:04:06.588Z,8.15
2022-10-03T06:06:52.422Z,8.98
2022-10-03T06:10:03.035Z,8.35
2022-10-03T06:12:40.263Z,8.85
2022-10-03T06:15:59.630Z,8.52
2022-10-03T06:19:03.885Z,7.97
2022-10-03T06:22:00.292Z,14.75
2022-10-03T06:25:06.336Z,21.02
2022-10-03T06:28:09.110Z,17.60
2022-10-03T06:31:29.703Z,11.40
2022-10-03T06:34:48.847Z,10.65
2022-10-03T06:38:06.896Z,9.20
2022-10-03T06:41:11.957Z,8.45
2022-10-03T06:43:58.554Z,8.18
2022-10-03T06:47:20.293Z,7.72
2022-10-03T06:50:14.068Z,7.95
2022-10-03T06:53:05.029Z,7.13
2022-10-03T06:56:12.411Z,7.63
2022-10-03T06:59:30.077Z,7.63
2022-10-03T07:02:20.223Z,8.23
2022-10-03T07:05:19.737Z,7.75
2022-10-03T07:08:15.791Z,7.57
2022-10-03T07:10:57.660Z,7.97
2022-10-03T07:13:52.334Z,6.57
2022-10-03T07:16:50.801Z,7.82
2022-10-03T07:19:52.088Z,7.28
2022-10-03T07:23:02.930Z,7.32
2022-10-03T07:26:00.965Z,6.25
2022-10-03T07:28:59.177Z,5.60
2022-10-03T07:31:41.579Z,5.28
2022-10-03T07:34:34.161Z,5.10
2022-10-03T07:37:40.176Z,4.70
2022-10-03T07:40:51.038Z,4.13
2022-10-03T07:43:53.630Z,4.40
2022-10-03T07:46:54.413Z,4.10
2022-10-03T07:49:41.197Z,4.18
2022-10-03T07:52:41.961Z,4.25
2022-10-03T07:55:26.842Z,4.47
2022-10-03T07:58:29.587Z,4.78
2022-10-03T08:01:18.552Z,4.90
2022-10-03T08:04:16.262Z,4.40
2022-10-03T08:06:46.066Z,4.05
2022-10-03T08:09:52.485Z,4.50
2022-10-03T08:12:47.897Z,4.40
2022-10-03T08:15:30.708Z,4.10
2022-10-03T08:18:41.672Z,4.30
2022-10-03T08:21:17.195Z,4.13
2022-10-03T08:24:10.003Z,4.47
2022-10-03T08:27:05.598Z,5.15
2022-10-03T08:30:04.094Z,4.35
2022-10-03T08:32:59.818Z,5.00
2022-10-03T08:35:49.528Z,4.32
2022-10-03T08:38:48.191Z,4.65
2022-10-03T08:42:23.917Z,4.70
2022-10-03T08:45:20.413Z,4.43
2022-10-03T08:48:37.846Z,5.60
2022-10-03T08:51:43.343Z,4.88
2022-10-03T08:54:36.528Z,4.82
2022-10-03T08:57:49.814Z,4.47
2022-10-03T09:00:22.085Z,5.20
2022-10-03T09:03:43.118Z,5.35
2022-10-03T09:07:16.641Z,5.40
2022-10-03T09:10:21.008Z,6.75
2022-10-03T09:13:17.778Z,6.28
2022-10-03T09:16:26.460Z,6.00
2022-10-03T09:19:16.811Z,6.85
2022-10-03T09:22:24.128Z,6.90
2022-10-03T09:25:16.301Z,7.30
2022-10-03T09:28:25.374Z,8.00
2022-10-03T09:31:05.311Z,8.27
2022-10-03T09:34:13.635Z,8.05
2022-10-03T09:37:25.165Z,7.50
2022-10-03T09:40:20.177Z,7.72
2022-10-03T09:43:32.896Z,8.15
2022-10-03T09:46:40.884Z,6.93
2022-10-03T09:50:07.274Z,7.50
2022-10-03T09:52:52.531Z,7.13
2022-10-03T09:55:47.179Z,7.75
2022-10-03T09:58:46.439Z,8.45
2022-10-03T10:01:28.479Z,7.22
2022-10-03T10:04:54.404Z,8.07
2022-10-03T10:08:09.817Z,7.55
2022-10-03T10:10:59.563Z,7.45
2022-10-03T10:14:08.654Z,7.40
2022-10-03T10:17:05.959Z,8.10
2022-10-03T10:20:05.931Z,7.90
2022-10-03T10:23:09.240Z,7.57
2022-10-03T10:26:30.824Z,8.30
2022-10-03T10:29:33.307Z,7.68
2022-10-03T10:32:31.907Z,7.05
2022-10-03T10:35:38.220Z,7.63
2022-10-03T10:38:28.687Z,7.20
2022-10-03T10:41:26.316Z,7.05
2022-10-03T10:44:31.116Z,6.57
2022-10-03T10:47:41.597Z,7.43
2022-10-03T10:50:48.739Z,6.65
2022-10-03T10:53:54.692Z,7.38
2022-10-03T10:57:05.763Z,6.55
2022-10-03T11:00:28.651Z,8.13
2022-10-03T11:03:31.501Z,7.60
2022-10-03T11:06:53.609Z,6.60
2022-10-03T11:09:48.604Z,5.63
2022-10-03T11:12:56.650Z,5.40
2022-10-03T11:16:01.163Z,5.03
2022-10-03T11:19:17.985Z,4.13
2022-10-03T11:22:37.550Z,6.10
2022-10-03T11:25:46.410Z,5.45
2022-10-03T11:29:06.103Z,4.95
2022-10-03T11:32:15.817Z,4.75
2022-10-03T11:35:15.169Z,4.47
2022-10-03T11:37:47.398Z,3.20
2022-10-03T11:40:32.546Z,3.78
2022-10-03T11:43:33.403Z,3.50
2022-10-03T11:46:19.275Z,4.32
2022-10-03T11:48:54.616Z,3.85
2022-10-03T11:51:35.679Z,4.43
2022-10-03T11:54:30.436Z,3.17
2022-10-03T11:57:06.564Z,3.22
2022-10-03T11:59:43.361Z,3.97
2022-10-03T12:02:17.713Z,2.65
2022-10-03T12:04:58.758Z,2.45
2022-10-03T12:08:04.492Z,3.40
2022-10-03T12:10:43.788Z,2.72
2022-10-03T12:13:16.712Z,2.75
2022-10-03T12:15:49.579Z,3.40
2022-10-03T12:18:22.497Z,3.20
2022-10-03T12:21:06.705Z,2.67
2022-10-03T12:23:56.079Z,3.40
2022-10-03T12:26:43.754Z,3.22
2022-10-03T12:29:14.133Z,3.38
2022-10-03T12:31:47.181Z,3.22
2022-10-03T12:34:30.960Z,3.00
2022-10-03T12:39:42.903Z,2.80
2022-10-03T12:42:29.612Z,2.72
2022-10-03T12:45:02.587Z,2.70
2022-10-03T12:47:56.713Z,3.00
2022-10-03T12:50:40.398Z,2.78
2022-10-03T12:53:24.154Z,2.38
2022-10-03T12:58:41.397Z,2.45
2022-10-03T13:01:19.208Z,2.17
2022-10-03T13:03:53.725Z,2.53
2022-10-03T13:07:03.205Z,2.28
2022-10-03T13:09:58.214Z,3.10
2022-10-03T13:12:43.666Z,2.50
2022-10-03T13:15:42.052Z,3.15
2022-10-03T13:18:23.813Z,3.20
2022-10-03T13:21:26.817Z,2.50
2022-10-03T13:24:02.193Z,3.15
2022-10-03T13:26:44.132Z,2.95
2022-10-03T13:29:26.929Z,2.90
2022-10-03T13:32:18.935Z,2.90
2022-10-03T13:35:34.433Z,2.47
2022-10-03T13:38:49.657Z,3.30
2022-10-03T13:41:27.647Z,3.20
2022-10-03T13:44:00.893Z,2.90
2022-10-03T13:46:39.193Z,3.00
2022-10-03T13:49:18.797Z,3.03
2022-10-03T13:51:54.480Z,3.40
2022-10-03T13:54:41.616Z,2.78
2022-10-03T13:57:16.720Z,3.05
2022-10-03T14:00:04.752Z,2.88
2022-10-03T14:03:01.728Z,3.22
2022-10-03T14:05:59.248Z,3.42
2022-10-03T14:08:44.124Z,3.17
2022-10-03T14:11:30.346Z,3.28
2022-10-03T14:14:20.169Z,3.25
2022-10-03T14:16:58.886Z,3.10
2022-10-03T14:19:36.789Z,3.33
2022-10-03T14:22:33.631Z,3.17
2022-10-03T14:25:16.747Z,2.75
2022-10-03T14:27:52.101Z,3.55
2022-10-03T14:30:23.238Z,3.15
2022-10-03T14:33:03.152Z,3.10
2022-10-03T14:35:42.484Z,3.13
2022-10-03T14:38:21.659Z,2.85
2022-10-03T14:40:54.064Z,2.97
2022-10-03T14:43:32.578Z,2.88
2022-10-03T14:46:03.088Z,3.13
2022-10-03T14:48:36.799Z,3.10
2022-10-03T14:51:13.974Z,3.08
2022-10-03T14:53:48.855Z,2.80
2022-10-03T14:56:22.401Z,2.38
2022-10-03T15:01:23.754Z,2.45
2022-10-03T15:04:00.174Z,2.25
2022-10-03T15:06:53.862Z,2.80
2022-10-03T15:09:42.925Z,2.95
2022-10-03T15:12:22.524Z,2.60
2022-10-03T15:15:01.808Z,3.28
2022-10-03T15:17:33.056Z,2.40
2022-10-03T15:20:04.223Z,2.50
2022-10-03T15:22:35.717Z,2.72
2022-10-03T15:25:12.952Z,2.83
2022-10-03T15:27:44.883Z,2.70
2022-10-03T15:30:31.426Z,2.65
2022-10-03T15:33:08.867Z,2.80
2022-10-03T15:35:41.779Z,3.10
2022-10-03T15:38:15.289Z,3.15
2022-10-03T15:43:34.718Z,3.00
2022-10-03T15:46:14.039Z,3.70
2022-10-03T15:48:47.380Z,3.65
2022-10-03T15:51:24.152Z,4.03
2022-10-03T15:53:59.700Z,3.50
2022-10-03T15:56:34.322Z,3.22
2022-10-03T15:59:08.607Z,3.92
2022-10-03T16:01:40.802Z,3.33
2022-10-03T16:04:18.803Z,3.53
2022-10-03T16:06:51.088Z,2.72
2022-10-03T16:09:26.832Z,3.75
2022-10-03T16:12:06.709Z,3.75
2022-10-03T16:14:43.139Z,3.22
2022-10-03T16:17:18.942Z,3.05
2022-10-03T16:19:55.047Z,2.90
2022-10-03T16:22:27.607Z,2.53
2022-10-03T16:25:05.646Z,2.95
2022-10-03T16:27:37.534Z,2.72
2022-10-03T16:30:21.611Z,2.85
2022-10-03T16:33:03.997Z,2.50
2022-10-03T16:35:36.549Z,2.83
2022-10-03T16:38:08.508Z,2.80
2022-10-03T16:40:38.981Z,2.92
2022-10-03T16:43:11.735Z,2.70
2022-10-03T16:45:47.389Z,2.93
2022-10-03T16:48:38.959Z,2.92
2022-10-03T16:51:15.092Z,2.75
2022-10-03T16:53:45.178Z,2.83
2022-10-03T16:56:18.539Z,3.30
2022-10-03T16:58:53.117Z,3.33
2022-10-03T17:01:36.255Z,3.70
2022-10-03T17:04:21.208Z,3.90
2022-10-03T17:06:51.166Z,3.65
2022-10-03T17:09:29.524Z,3.53
2022-10-03T17:12:00.748Z,3.05
2022-10-03T17:14:36.749Z,3.30
2022-10-03T17:17:12.844Z,3.58
2022-10-03T17:19:45.776Z,3.13
2022-10-03T17:22:18.806Z,3.47
2022-10-03T17:24:53.769Z,3.30
2022-10-03T17:27:30.101Z,3.55
2022-10-03T17:30:03.419Z,4.07
2022-10-03T17:32:37.486Z,3.50
2022-10-03T17:35:13.654Z,3.88
2022-10-03T17:38:01.796Z,4.40
2022-10-03T17:40:51.008Z,4.85
2022-10-03T17:43:30.598Z,4.57
2022-10-03T17:46:07.056Z,4.60
2022-10-03T17:48:40.646Z,5.05
2022-10-03T17:51:39.466Z,5.03
2022-10-03T17:54:15.949Z,5.10
2022-10-03T17:56:51.512Z,5.00
2022-10-03T17:59:28.048Z,5.40
2022-10-03T18:02:00.443Z,5.53
2022-10-03T18:04:36.785Z,5.32
2022-10-03T18:07:10.516Z,5.85
2022-10-03T18:12:19.269Z,5.68
2022-10-03T18:15:08.579Z,5.75
2022-10-03T18:17:50.276Z,5.53
2022-10-03T18:20:45.341Z,6.55
2022-10-03T18:23:49.937Z,7.25
2022-10-03T18:26:24.123Z,6.68
2022-10-03T18:28:59.760Z,7.35
2022-10-03T18:31:31.127Z,7.05
2022-10-03T18:34:02.814Z,6.72
2022-10-03T18:36:37.413Z,6.93
2022-10-03T18:39:11.887Z,6.95
2022-10-03T18:41:46.416Z,7.43
2022-10-03T18:44:19.110Z,7.28
2022-10-03T18:46:52.809Z,8.07
2022-10-03T18:49:35.272Z,9.02
2022-10-03T18:52:11.775Z,8.60
2022-10-03T18:54:52.939Z,8.10
2022-10-03T18:57:26.632Z,8.93
2022-10-03T19:02:31.761Z,7.07
2022-10-03T19:05:08.701Z,7.63
2022-10-03T19:07:44.216Z,6.80
2022-10-03T19:10:37.416Z,6.82
2022-10-03T19:13:17.039Z,7.18
2022-10-03T19:16:06.160Z,8.07
2022-10-03T19:18:43.343Z,7.28
2022-10-03T19:21:18.936Z,8.35
2022-10-03T19:23:53.110Z,7.68
2022-10-03T19:26:25.671Z,8.32
2022-10-03T19:28:56.662Z,8.40
2022-10-03T19:31:30.769Z,14.10
2022-10-03T19:34:03.601Z,14.30
2022-10-03T19:36:35.959Z,20.73
2022-10-03T19:39:06.399Z,15.30
2022-10-03T19:41:39.409Z,14.80
2022-10-03T19:44:09.510Z,13.13
2022-10-03T19:46:57.779Z,12.52
2022-10-03T19:49:44.529Z,10.57
2022-10-03T19:52:18.616Z,11.18
2022-10-03T19:54:55.245Z,11.13
2022-10-03T19:57:28.434Z,10.68
2022-10-03T20:00:00.329Z,10.30
2022-10-03T20:02:30.248Z,10.82
2022-10-03T20:04:59.462Z,9.63
2022-10-03T20:07:46.611Z,10.40
2022-10-03T20:10:34.180Z,11.52
2022-10-03T20:13:04.158Z,10.40
2022-10-03T20:15:41.918Z,10.13
2022-10-03T20:18:17.485Z,9.55
2022-10-03T20:20:50.095Z,9.40
2022-10-03T20:23:21.041Z,9.23
2022-10-03T20:25:56.573Z,8.70
2022-10-03T20:28:37.619Z,8.60
2022-10-03T20:31:06.376Z,7.05
2022-10-03T20:33:38.052Z,8.60
2022-10-03T20:36:14.040Z,8.02
2022-10-03T20:39:03.729Z,7.65
2022-10-03T20:41:41.208Z,7.43
2022-10-03T20:44:17.897Z,7.75
2022-10-03T20:46:49.406Z,7.68
2022-10-03T20:49:28.255Z,7.60
2022-10-03T20:52:02.077Z,7.78
2022-10-03T20:54:37.295Z,8.75
2022-10-03T20:57:15.545Z,7.50
2022-10-03T20:59:48.039Z,7.22
2022-10-03T21:02:27.201Z,6.93
2022-10-03T21:04:59.563Z,7.28
2022-10-03T21:07:37.690Z,7.35
2022-10-03T21:10:25.935Z,6.97
2022-10-03T21:12:59.068Z,7.72
2022-10-03T21:15:38.298Z,7.28
2022-10-03T21:18:07.343Z,7.10
2022-10-03T21:20:39.341Z,6.93
2022-10-03T21:23:16.247Z,7.13
2022-10-03T21:25:45.373Z,7.50
2022-10-03T21:28:26.214Z,7.85
2022-10-03T21:31:18.350Z,7.53
2022-10-03T21:34:01.158Z,8.48
2022-10-03T21:36:35.685Z,9.13
2022-10-03T21:39:16.677Z,9.02
2022-10-03T21:41:57.929Z,8.68
2022-10-03T21:44:49.634Z,8.27
2022-10-03T21:47:29.098Z,9.70
2022-10-03T21:49:59.699Z,9.00
2022-10-03T21:52:51.232Z,9.88
2022-10-03T21:55:52.332Z,10.10
2022-10-03T21:58:45.466Z,9.95
2022-10-03T22:01:22.151Z,9.93
2022-10-03T22:03:55.025Z,11.00
2022-10-03T22:06:26.198Z,10.57
2022-10-03T22:08:55.006Z,11.55
2022-10-03T22:11:43.251Z,10.85
2022-10-03T22:14:18.933Z,12.05
2022-10-03T22:16:55.712Z,11.43
2022-10-03T22:19:33.824Z,10.93
2022-10-03T22:22:17.606Z,10.07
2022-10-03T22:25:00.010Z,11.90
2022-10-03T22:27:36.662Z,10.50
2022-10-03T22:30:08.124Z,12.23
2022-10-03T22:32:45.323Z,11.27
2022-10-03T22:35:32.182Z,12.07
2022-10-03T22:38:02.643Z,12.68
2022-10-03T22:40:32.967Z,12.98
2022-10-03T22:43:04.692Z,10.82
2022-10-03T22:45:38.087Z,12.98
2022-10-03T22:48:13.812Z,12.30
2022-10-03T22:50:43.226Z,11.88
2022-10-03T22:53:15.883Z,11.25
2022-10-03T22:55:46.560Z,10.50
2022-10-03T22:58:15.545Z,13.18
2022-10-03T23:00:46.069Z,13.50
2022-10-03T23:03:19.366Z,13.05
2022-10-03T23:06:23.103Z,13.35
2022-10-03T23:09:01.859Z,12.27
2022-10-03T23:11:31.929Z,11.57
2022-10-03T23:14:04.910Z,11.75
2022-10-03T23:16:52.693Z,12.43
2022-10-03T23:19:40.243Z,12.57
2022-10-03T23:22:16.701Z,12.00
2022-10-03T23:24:48.483Z,10.73
2022-10-03T23:27:46.100Z,11.93
2022-10-03T23:30:54.254Z,12.40
2022-10-03T23:33:50.613Z,10.82
2022-10-03T23:36:24.392Z,11.30
2022-10-03T23:38:59.994Z,12.32
2022-10-03T23:41:56.512Z,10.75
2022-10-03T23:44:35.395Z,10.85
2022-10-03T23:47:07.323Z,10.90
2022-10-03T23:49:38.802Z,11.13
2022-10-03T23:52:17.468Z,12.77
2022-10-03T23:54:49.584Z,13.05
2022-10-03T23:57:20.295Z,14.18
2022-10-03T23:59:49.519Z,13.73
